sensor_id;sensor_type;location;lat;lon;timestamp;temperature;humidity
12123;DHT22;6125;59.628;17.852;2023-04-03T00:01:03;-3.90;99.90
12123;DHT22;6125;59.628;17.852;2023-04-03T00:03:30;-3.90;99.90
12123;DHT22;6125;59.628;17.852;2023-04-03T00:05:57;-3.90;99.90
12123;DHT22;6125;59.628;17.852;2023-04-03T00:08:26;-3.90;99.90
12123;DHT22;6125;59.628;17.852;2023-04-03T00:10:53;-3.90;99.90
12123;DHT22;6125;59.628;17.852;2023-04-03T00:13:20;-4.00;99.90
12123;DHT22;6125;59.628;17.852;2023-04-03T00:15:47;-4.00;99.90
12123;DHT22;6125;59.628;17.852;2023-04-03T00:18:14;-4.00;99.90
12123;DHT22;6125;59.628;17.852;2023-04-03T00:20:41;-4.00;99.90
12123;DHT22;6125;59.628;17.852;2023-04-03T00:23:08;-4.00;99.90
12123;DHT22;6125;59.628;17.852;2023-04-03T00:25:37;-4.00;99.90
12123;DHT22;6125;59.628;17.852;2023-04-03T00:28:04;-4.00;99.90
12123;DHT22;6125;59.628;17.852;2023-04-03T00:30:32;-4.10;99.90
12123;DHT22;6125;59.628;17.852;2023-04-03T00:32:59;-4.10;99.90
12123;DHT22;6125;59.628;17.852;2023-04-03T00:35:28;-4.10;99.90
12123;DHT22;6125;59.628;17.852;2023-04-03T00:37:55;-4.10;99.90
12123;DHT22;6125;59.628;17.852;2023-04-03T00:40:24;-4.10;99.90
12123;DHT22;6125;59.628;17.852;2023-04-03T00:42:57;-4.10;99.90
12123;DHT22;6125;59.628;17.852;2023-04-03T00:45:31;-4.10;99.90
12123;DHT22;6125;59.628;17.852;2023-04-03T00:48:00;-4.20;99.90
12123;DHT22;6125;59.628;17.852;2023-04-03T00:50:28;-4.20;99.90
12123;DHT22;6125;59.628;17.852;2023-04-03T00:52:56;-4.20;99.90
12123;DHT22;6125;59.628;17.852;2023-04-03T00:55:24;-4.20;99.90
12123;DHT22;6125;59.628;17.852;2023-04-03T00:57:53;-4.40;99.90
12123;DHT22;6125;59.628;17.852;2023-04-03T01:00:22;-4.20;99.90
12123;DHT22;6125;59.628;17.852;2023-04-03T01:02:50;-4.20;99.90
12123;DHT22;6125;59.628;17.852;2023-04-03T01:05:19;-4.20;99.90
12123;DHT22;6125;59.628;17.852;2023-04-03T01:07:48;-4.30;99.90
12123;DHT22;6125;59.628;17.852;2023-04-03T01:10:17;-4.30;99.90
12123;DHT22;6125;59.628;17.852;2023-04-03T01:12:48;-4.30;99.90
12123;DHT22;6125;59.628;17.852;2023-04-03T01:15:18;-4.30;99.90
12123;DHT22;6125;59.628;17.852;2023-04-03T01:17:47;-4.40;99.90
12123;DHT22;6125;59.628;17.852;2023-04-03T01:23:27;-4.50;99.90
12123;DHT22;6125;59.628;17.852;2023-04-03T01:25:57;-4.50;99.90
12123;DHT22;6125;59.628;17.852;2023-04-03T01:28:26;-4.50;99.90
12123;DHT22;6125;59.628;17.852;2023-04-03T01:31:02;-4.50;99.90
12123;DHT22;6125;59.628;17.852;2023-04-03T01:33:32;-4.50;99.90
12123;DHT22;6125;59.628;17.852;2023-04-03T01:36:00;-4.50;99.90
12123;DHT22;6125;59.628;17.852;2023-04-03T01:38:27;-4.50;99.90
12123;DHT22;6125;59.628;17.852;2023-04-03T01:40:54;-4.50;99.90
12123;DHT22;6125;59.628;17.852;2023-04-03T01:43:21;-4.50;99.90
12123;DHT22;6125;59.628;17.852;2023-04-03T01:45:48;-4.50;99.90
12123;DHT22;6125;59.628;17.852;2023-04-03T01:48:16;-4.50;99.90
12123;DHT22;6125;59.628;17.852;2023-04-03T01:50:44;-4.50;99.90
12123;DHT22;6125;59.628;17.852;2023-04-03T01:53:12;-4.50;99.90
12123;DHT22;6125;59.628;17.852;2023-04-03T01:55:39;-4.50;99.90
12123;DHT22;6125;59.628;17.852;2023-04-03T01:58:06;-4.60;99.90
12123;DHT22;6125;59.628;17.852;2023-04-03T02:00:33;-4.60;99.90
12123;DHT22;6125;59.628;17.852;2023-04-03T02:03:01;-4.60;99.90
12123;DHT22;6125;59.628;17.852;2023-04-03T02:05:29;-4.60;99.90
12123;DHT22;6125;59.628;17.852;2023-04-03T02:07:57;-4.60;99.90
12123;DHT22;6125;59.628;17.852;2023-04-03T02:10:25;-4.60;99.90
12123;DHT22;6125;59.628;17.852;2023-04-03T02:12:52;-4.60;99.90
12123;DHT22;6125;59.628;17.852;2023-04-03T02:15:19;-4.60;99.90
12123;DHT22;6125;59.628;17.852;2023-04-03T02:17:46;-4.70;99.90
12123;DHT22;6125;59.628;17.852;2023-04-03T02:20:13;-4.70;99.90
12123;DHT22;6125;59.628;17.852;2023-04-03T02:22:40;-4.70;99.90
12123;DHT22;6125;59.628;17.852;2023-04-03T02:25:09;-4.70;99.90
12123;DHT22;6125;59.628;17.852;2023-04-03T02:27:37;-4.70;99.90
12123;DHT22;6125;59.628;17.852;2023-04-03T02:30:05;-4.70;99.90
12123;DHT22;6125;59.628;17.852;2023-04-03T02:32:32;-4.70;99.90
12123;DHT22;6125;59.628;17.852;2023-04-03T02:35:00;-4.70;99.90
12123;DHT22;6125;59.628;17.852;2023-04-03T02:37:27;-4.70;99.90
12123;DHT22;6125;59.628;17.852;2023-04-03T02:39:54;-4.80;99.90
12123;DHT22;6125;59.628;17.852;2023-04-03T02:42:23;-4.80;99.90
12123;DHT22;6125;59.628;17.852;2023-04-03T02:44:50;-4.80;99.90
12123;DHT22;6125;59.628;17.852;2023-04-03T02:47:17;-4.80;99.90
12123;DHT22;6125;59.628;17.852;2023-04-03T02:49:44;-4.80;99.90
12123;DHT22;6125;59.628;17.852;2023-04-03T02:52:12;-4.80;99.90
12123;DHT22;6125;59.628;17.852;2023-04-03T02:54:39;-4.90;99.90
12123;DHT22;6125;59.628;17.852;2023-04-03T02:57:07;-4.80;99.90
12123;DHT22;6125;59.628;17.852;2023-04-03T02:59:36;-4.80;99.90
12123;DHT22;6125;59.628;17.852;2023-04-03T03:02:06;-4.80;99.90
12123;DHT22;6125;59.628;17.852;2023-04-03T03:04:33;-4.80;99.90
12123;DHT22;6125;59.628;17.852;2023-04-03T03:07:00;-4.80;99.90
12123;DHT22;6125;59.628;17.852;2023-04-03T03:09:27;-4.80;99.90
12123;DHT22;6125;59.628;17.852;2023-04-03T03:11:55;-4.80;99.90
12123;DHT22;6125;59.628;17.852;2023-04-03T03:14:22;-4.90;99.90
12123;DHT22;6125;59.628;17.852;2023-04-03T03:16:50;-4.90;99.90
12123;DHT22;6125;59.628;17.852;2023-04-03T03:19:18;-4.90;99.90
12123;DHT22;6125;59.628;17.852;2023-04-03T03:21:45;-4.90;99.90
12123;DHT22;6125;59.628;17.852;2023-04-03T03:24:12;-4.90;99.90
12123;DHT22;6125;59.628;17.852;2023-04-03T03:26:41;-4.90;99.90
12123;DHT22;6125;59.628;17.852;2023-04-03T03:29:08;-4.90;99.90
12123;DHT22;6125;59.628;17.852;2023-04-03T03:31:35;-4.90;99.90
12123;DHT22;6125;59.628;17.852;2023-04-03T03:34:04;-4.90;99.90
12123;DHT22;6125;59.628;17.852;2023-04-03T03:36:31;-4.90;99.90
12123;DHT22;6125;59.628;17.852;2023-04-03T03:38:58;-5.00;99.90
12123;DHT22;6125;59.628;17.852;2023-04-03T03:41:25;-5.00;99.90
12123;DHT22;6125;59.628;17.852;2023-04-03T03:43:52;-5.00;99.90
12123;DHT22;6125;59.628;17.852;2023-04-03T03:46:19;-5.00;99.90
12123;DHT22;6125;59.628;17.852;2023-04-03T03:48:46;-5.00;99.90
12123;DHT22;6125;59.628;17.852;2023-04-03T03:51:15;-5.00;99.90
12123;DHT22;6125;59.628;17.852;2023-04-03T03:53:42;-5.10;99.90
12123;DHT22;6125;59.628;17.852;2023-04-03T03:56:09;-5.10;99.90
12123;DHT22;6125;59.628;17.852;2023-04-03T03:58:36;-5.10;99.90
12123;DHT22;6125;59.628;17.852;2023-04-03T04:01:04;-5.10;99.90
12123;DHT22;6125;59.628;17.852;2023-04-03T04:03:31;-5.00;99.90
12123;DHT22;6125;59.628;17.852;2023-04-03T04:05:59;-5.10;99.90
12123;DHT22;6125;59.628;17.852;2023-04-03T04:08:28;-5.10;99.90
12123;DHT22;6125;59.628;17.852;2023-04-03T04:10:55;-5.10;99.90
12123;DHT22;6125;59.628;17.852;2023-04-03T04:13:22;-5.10;99.90
12123;DHT22;6125;59.628;17.852;2023-04-03T04:15:49;-5.10;99.90
12123;DHT22;6125;59.628;17.852;2023-04-03T04:18:16;-5.10;99.90
12123;DHT22;6125;59.628;17.852;2023-04-03T04:20:46;-5.10;99.90
12123;DHT22;6125;59.628;17.852;2023-04-03T04:23:13;-5.10;99.90
12123;DHT22;6125;59.628;17.852;2023-04-03T04:25:43;-5.10;99.90
12123;DHT22;6125;59.628;17.852;2023-04-03T04:28:10;-5.10;99.90
12123;DHT22;6125;59.628;17.852;2023-04-03T04:30:38;-5.10;99.90
12123;DHT22;6125;59.628;17.852;2023-04-03T04:33:05;-5.10;99.90
12123;DHT22;6125;59.628;17.852;2023-04-03T04:35:32;-5.00;99.90
12123;DHT22;6125;59.628;17.852;2023-04-03T04:37:59;-5.00;99.90
12123;DHT22;6125;59.628;17.852;2023-04-03T04:40:27;-5.00;99.90
12123;DHT22;6125;59.628;17.852;2023-04-03T04:42:55;-5.00;99.90
12123;DHT22;6125;59.628;17.852;2023-04-03T04:45:22;-5.00;99.90
12123;DHT22;6125;59.628;17.852;2023-04-03T04:47:50;-5.00;99.90
12123;DHT22;6125;59.628;17.852;2023-04-03T04:50:18;-5.00;99.90
12123;DHT22;6125;59.628;17.852;2023-04-03T04:52:45;-4.90;99.90
12123;DHT22;6125;59.628;17.852;2023-04-03T04:55:12;-4.90;99.90
12123;DHT22;6125;59.628;17.852;2023-04-03T04:57:39;-4.90;99.90
12123;DHT22;6125;59.628;17.852;2023-04-03T05:00:09;-4.80;99.90
12123;DHT22;6125;59.628;17.852;2023-04-03T05:02:36;-4.80;99.90
12123;DHT22;6125;59.628;17.852;2023-04-03T05:05:04;-4.70;99.90
12123;DHT22;6125;59.628;17.852;2023-04-03T05:07:31;-4.70;99.90
12123;DHT22;6125;59.628;17.852;2023-04-03T05:09:58;-4.60;99.90
12123;DHT22;6125;59.628;17.852;2023-04-03T05:12:25;-4.60;99.90
12123;DHT22;6125;59.628;17.852;2023-04-03T05:14:52;-4.60;99.90
12123;DHT22;6125;59.628;17.852;2023-04-03T05:17:21;-4.50;99.90
12123;DHT22;6125;59.628;17.852;2023-04-03T05:19:48;-4.50;99.90
12123;DHT22;6125;59.628;17.852;2023-04-03T05:22:21;-4.40;99.90
12123;DHT22;6125;59.628;17.852;2023-04-03T05:24:48;-4.30;99.90
12123;DHT22;6125;59.628;17.852;2023-04-03T05:27:15;-4.30;99.90
12123;DHT22;6125;59.628;17.852;2023-04-03T05:29:43;-4.20;99.90
12123;DHT22;6125;59.628;17.852;2023-04-03T05:32:10;-4.10;99.90
12123;DHT22;6125;59.628;17.852;2023-04-03T05:34:39;-4.10;99.90
12123;DHT22;6125;59.628;17.852;2023-04-03T05:37:06;-4.00;99.90
12123;DHT22;6125;59.628;17.852;2023-04-03T05:39:33;-3.90;99.90
12123;DHT22;6125;59.628;17.852;2023-04-03T05:42:00;-3.90;99.90
12123;DHT22;6125;59.628;17.852;2023-04-03T05:44:27;-3.80;99.90
12123;DHT22;6125;59.628;17.852;2023-04-03T05:46:55;-3.80;99.90
12123;DHT22;6125;59.628;17.852;2023-04-03T05:49:22;-3.70;99.90
12123;DHT22;6125;59.628;17.852;2023-04-03T05:51:51;-3.60;99.90
12123;DHT22;6125;59.628;17.852;2023-04-03T05:54:20;-3.60;99.90
12123;DHT22;6125;59.628;17.852;2023-04-03T05:56:48;-3.50;99.90
12123;DHT22;6125;59.628;17.852;2023-04-03T05:59:16;-3.40;99.90
12123;DHT22;6125;59.628;17.852;2023-04-03T06:01:43;-3.40;99.90
12123;DHT22;6125;59.628;17.852;2023-04-03T06:04:10;-3.30;99.90
12123;DHT22;6125;59.628;17.852;2023-04-03T06:06:46;-3.20;99.90
12123;DHT22;6125;59.628;17.852;2023-04-03T06:09:16;-3.10;99.90
12123;DHT22;6125;59.628;17.852;2023-04-03T06:11:43;-3.00;99.90
12123;DHT22;6125;59.628;17.852;2023-04-03T06:14:11;-2.90;99.90
12123;DHT22;6125;59.628;17.852;2023-04-03T06:16:38;-2.80;99.90
12123;DHT22;6125;59.628;17.852;2023-04-03T06:19:06;-2.70;99.90
12123;DHT22;6125;59.628;17.852;2023-04-03T06:21:33;-2.70;99.90
12123;DHT22;6125;59.628;17.852;2023-04-03T06:24:02;-2.60;99.90
12123;DHT22;6125;59.628;17.852;2023-04-03T06:26:30;-2.50;99.90
12123;DHT22;6125;59.628;17.852;2023-04-03T06:28:59;-2.40;99.90
12123;DHT22;6125;59.628;17.852;2023-04-03T06:31:26;-2.40;99.90
12123;DHT22;6125;59.628;17.852;2023-04-03T06:33:53;-2.30;99.90
12123;DHT22;6125;59.628;17.852;2023-04-03T06:36:20;-2.30;99.90
12123;DHT22;6125;59.628;17.852;2023-04-03T06:38:48;-2.10;99.90
12123;DHT22;6125;59.628;17.852;2023-04-03T06:41:16;-2.10;99.90
12123;DHT22;6125;59.628;17.852;2023-04-03T06:43:45;-2.00;99.90
12123;DHT22;6125;59.628;17.852;2023-04-03T06:46:15;-1.90;99.90
12123;DHT22;6125;59.628;17.852;2023-04-03T06:48:43;-1.90;99.90
12123;DHT22;6125;59.628;17.852;2023-04-03T06:51:18;-1.80;99.90
12123;DHT22;6125;59.628;17.852;2023-04-03T06:53:46;-1.80;99.90
12123;DHT22;6125;59.628;17.852;2023-04-03T06:56:13;-1.70;99.90
12123;DHT22;6125;59.628;17.852;2023-04-03T06:58:41;-1.60;99.90
12123;DHT22;6125;59.628;17.852;2023-04-03T07:01:10;-1.50;99.90
12123;DHT22;6125;59.628;17.852;2023-04-03T07:03:38;-1.40;99.90
12123;DHT22;6125;59.628;17.852;2023-04-03T07:06:06;-1.30;99.90
12123;DHT22;6125;59.628;17.852;2023-04-03T07:08:40;-1.20;99.90
12123;DHT22;6125;59.628;17.852;2023-04-03T07:11:08;-1.10;99.90
12123;DHT22;6125;59.628;17.852;2023-04-03T07:13:35;-1.10;99.90
12123;DHT22;6125;59.628;17.852;2023-04-03T07:16:03;-1.00;99.90
12123;DHT22;6125;59.628;17.852;2023-04-03T07:18:32;-1.00;99.90
12123;DHT22;6125;59.628;17.852;2023-04-03T07:21:00;-1.00;99.90
12123;DHT22;6125;59.628;17.852;2023-04-03T07:23:27;-1.00;99.90
12123;DHT22;6125;59.628;17.852;2023-04-03T07:25:54;-0.90;99.90
12123;DHT22;6125;59.628;17.852;2023-04-03T07:28:22;-0.80;99.90
12123;DHT22;6125;59.628;17.852;2023-04-03T07:30:51;-0.80;99.90
12123;DHT22;6125;59.628;17.852;2023-04-03T07:33:21;-0.70;99.90
12123;DHT22;6125;59.628;17.852;2023-04-03T07:35:50;-0.70;99.90
12123;DHT22;6125;59.628;17.852;2023-04-03T07:38:17;-0.60;99.90
12123;DHT22;6125;59.628;17.852;2023-04-03T07:40:46;-0.60;99.90
12123;DHT22;6125;59.628;17.852;2023-04-03T07:43:14;-0.50;99.90
12123;DHT22;6125;59.628;17.852;2023-04-03T07:45:41;-0.40;99.90
12123;DHT22;6125;59.628;17.852;2023-04-03T07:48:09;-0.40;99.90
12123;DHT22;6125;59.628;17.852;2023-04-03T07:50:36;-0.40;99.90
12123;DHT22;6125;59.628;17.852;2023-04-03T07:53:05;-0.40;99.90
12123;DHT22;6125;59.628;17.852;2023-04-03T07:55:33;-0.40;99.90
12123;DHT22;6125;59.628;17.852;2023-04-03T07:58:06;-0.40;99.90
12123;DHT22;6125;59.628;17.852;2023-04-03T08:00:33;-0.30;99.90
12123;DHT22;6125;59.628;17.852;2023-04-03T08:03:00;-0.30;99.90
12123;DHT22;6125;59.628;17.852;2023-04-03T08:05:27;-0.30;99.90
12123;DHT22;6125;59.628;17.852;2023-04-03T08:07:54;-0.30;99.90
12123;DHT22;6125;59.628;17.852;2023-04-03T08:10:22;-0.20;99.90
12123;DHT22;6125;59.628;17.852;2023-04-03T08:12:50;-0.10;99.90
12123;DHT22;6125;59.628;17.852;2023-04-03T08:15:17;0.00;99.90
12123;DHT22;6125;59.628;17.852;2023-04-03T08:17:44;0.10;99.90
12123;DHT22;6125;59.628;17.852;2023-04-03T08:20:11;0.20;99.90
12123;DHT22;6125;59.628;17.852;2023-04-03T08:22:38;0.20;99.90
12123;DHT22;6125;59.628;17.852;2023-04-03T08:25:06;0.20;99.90
12123;DHT22;6125;59.628;17.852;2023-04-03T08:27:35;0.20;99.90
12123;DHT22;6125;59.628;17.852;2023-04-03T08:30:03;0.20;99.90
12123;DHT22;6125;59.628;17.852;2023-04-03T08:32:30;0.20;99.90
12123;DHT22;6125;59.628;17.852;2023-04-03T08:34:57;0.30;99.90
12123;DHT22;6125;59.628;17.852;2023-04-03T08:37:25;0.40;99.90
12123;DHT22;6125;59.628;17.852;2023-04-03T08:39:52;0.40;99.90
12123;DHT22;6125;59.628;17.852;2023-04-03T08:42:39;0.50;99.90
12123;DHT22;6125;59.628;17.852;2023-04-03T08:45:10;0.50;99.90
12123;DHT22;6125;59.628;17.852;2023-04-03T08:47:42;0.50;99.90
12123;DHT22;6125;59.628;17.852;2023-04-03T08:50:13;0.60;99.90
12123;DHT22;6125;59.628;17.852;2023-04-03T08:52:44;0.60;99.90
12123;DHT22;6125;59.628;17.852;2023-04-03T08:55:21;0.70;99.90
12123;DHT22;6125;59.628;17.852;2023-04-03T08:57:53;0.70;99.90
12123;DHT22;6125;59.628;17.852;2023-04-03T09:00:25;0.80;99.90
12123;DHT22;6125;59.628;17.852;2023-04-03T09:02:55;0.90;99.90
12123;DHT22;6125;59.628;17.852;2023-04-03T09:05:35;0.90;99.90
12123;DHT22;6125;59.628;17.852;2023-04-03T09:08:14;0.90;99.90
12123;DHT22;6125;59.628;17.852;2023-04-03T09:10:43;1.00;99.90
12123;DHT22;6125;59.628;17.852;2023-04-03T09:13:22;1.00;99.90
12123;DHT22;6125;59.628;17.852;2023-04-03T09:15:52;1.10;99.90
12123;DHT22;6125;59.628;17.852;2023-04-03T09:18:22;1.20;99.90
12123;DHT22;6125;59.628;17.852;2023-04-03T09:20:59;1.20;99.90
12123;DHT22;6125;59.628;17.852;2023-04-03T09:23:30;1.20;99.90
12123;DHT22;6125;59.628;17.852;2023-04-03T09:26:03;1.20;99.90
12123;DHT22;6125;59.628;17.852;2023-04-03T09:28:37;1.30;99.90
12123;DHT22;6125;59.628;17.852;2023-04-03T09:31:17;1.40;99.90
12123;DHT22;6125;59.628;17.852;2023-04-03T09:33:45;1.40;99.90
12123;DHT22;6125;59.628;17.852;2023-04-03T09:36:13;1.40;99.90
12123;DHT22;6125;59.628;17.852;2023-04-03T09:38:40;1.50;99.90
12123;DHT22;6125;59.628;17.852;2023-04-03T09:41:21;1.50;99.90
12123;DHT22;6125;59.628;17.852;2023-04-03T09:43:54;1.60;99.90
12123;DHT22;6125;59.628;17.852;2023-04-03T09:46:29;1.60;99.90
12123;DHT22;6125;59.628;17.852;2023-04-03T09:48:58;1.60;99.90
12123;DHT22;6125;59.628;17.852;2023-04-03T09:51:26;1.70;99.90
12123;DHT22;6125;59.628;17.852;2023-04-03T09:53:55;1.70;99.90
12123;DHT22;6125;59.628;17.852;2023-04-03T09:56:25;1.80;99.90
12123;DHT22;6125;59.628;17.852;2023-04-03T09:59:08;1.80;99.90
12123;DHT22;6125;59.628;17.852;2023-04-03T10:01:42;1.80;99.90
12123;DHT22;6125;59.628;17.852;2023-04-03T10:04:11;1.90;99.90
12123;DHT22;6125;59.628;17.852;2023-04-03T10:06:40;2.10;99.90
12123;DHT22;6125;59.628;17.852;2023-04-03T10:09:18;2.10;99.90
12123;DHT22;6125;59.628;17.852;2023-04-03T10:12:00;2.20;99.90
12123;DHT22;6125;59.628;17.852;2023-04-03T10:14:33;2.10;99.90
12123;DHT22;6125;59.628;17.852;2023-04-03T10:17:15;2.30;99.90
12123;DHT22;6125;59.628;17.852;2023-04-03T10:19:48;2.30;99.90
12123;DHT22;6125;59.628;17.852;2023-04-03T10:22:21;2.40;99.90
12123;DHT22;6125;59.628;17.852;2023-04-03T10:24:55;2.40;99.90
12123;DHT22;6125;59.628;17.852;2023-04-03T10:27:38;2.50;99.90
12123;DHT22;6125;59.628;17.852;2023-04-03T10:30:19;2.60;99.90
12123;DHT22;6125;59.628;17.852;2023-04-03T10:32:58;2.70;99.90
12123;DHT22;6125;59.628;17.852;2023-04-03T10:35:37;2.70;99.90
12123;DHT22;6125;59.628;17.852;2023-04-03T10:38:15;2.70;99.90
12123;DHT22;6125;59.628;17.852;2023-04-03T10:40:48;2.80;99.90
12123;DHT22;6125;59.628;17.852;2023-04-03T10:43:21;2.80;99.90
12123;DHT22;6125;59.628;17.852;2023-04-03T10:45:57;2.90;99.90
12123;DHT22;6125;59.628;17.852;2023-04-03T10:48:40;2.90;99.90
12123;DHT22;6125;59.628;17.852;2023-04-03T10:51:23;3.00;99.90
12123;DHT22;6125;59.628;17.852;2023-04-03T10:53:56;3.20;99.90
12123;DHT22;6125;59.628;17.852;2023-04-03T10:56:32;3.40;99.90
12123;DHT22;6125;59.628;17.852;2023-04-03T10:59:13;3.50;99.90
12123;DHT22;6125;59.628;17.852;2023-04-03T11:01:46;3.60;99.90
12123;DHT22;6125;59.628;17.852;2023-04-03T11:04:15;3.50;99.90
12123;DHT22;6125;59.628;17.852;2023-04-03T11:06:47;3.60;99.90
12123;DHT22;6125;59.628;17.852;2023-04-03T11:09:22;3.60;99.90
12123;DHT22;6125;59.628;17.852;2023-04-03T11:11:53;3.70;99.90
12123;DHT22;6125;59.628;17.852;2023-04-03T11:14:26;3.80;99.90
12123;DHT22;6125;59.628;17.852;2023-04-03T11:17:02;3.80;99.90
12123;DHT22;6125;59.628;17.852;2023-04-03T11:19:35;3.90;99.90
12123;DHT22;6125;59.628;17.852;2023-04-03T11:22:11;4.00;99.90
12123;DHT22;6125;59.628;17.852;2023-04-03T11:24:42;4.00;99.90
12123;DHT22;6125;59.628;17.852;2023-04-03T11:27:15;4.00;99.90
12123;DHT22;6125;59.628;17.852;2023-04-03T11:29:45;4.00;99.90
12123;DHT22;6125;59.628;17.852;2023-04-03T11:32:31;4.00;99.90
12123;DHT22;6125;59.628;17.852;2023-04-03T11:35:02;4.00;99.90
12123;DHT22;6125;59.628;17.852;2023-04-03T11:37:34;4.00;99.90
12123;DHT22;6125;59.628;17.852;2023-04-03T11:40:05;4.10;99.90
12123;DHT22;6125;59.628;17.852;2023-04-03T11:42:37;4.10;99.90
12123;DHT22;6125;59.628;17.852;2023-04-03T11:45:33;4.20;99.90
12123;DHT22;6125;59.628;17.852;2023-04-03T11:48:03;4.20;99.90
12123;DHT22;6125;59.628;17.852;2023-04-03T11:50:42;4.20;99.90
12123;DHT22;6125;59.628;17.852;2023-04-03T11:53:29;4.20;99.90
12123;DHT22;6125;59.628;17.852;2023-04-03T11:56:26;4.20;99.90
12123;DHT22;6125;59.628;17.852;2023-04-03T11:59:23;4.20;99.90
12123;DHT22;6125;59.628;17.852;2023-04-03T12:01:52;4.20;99.90
12123;DHT22;6125;59.628;17.852;2023-04-03T12:04:22;4.30;99.90
12123;DHT22;6125;59.628;17.852;2023-04-03T12:07:14;4.40;99.90
12123;DHT22;6125;59.628;17.852;2023-04-03T12:12:58;4.50;99.90
12123;DHT22;6125;59.628;17.852;2023-04-03T12:15:54;4.60;99.90
12123;DHT22;6125;59.628;17.852;2023-04-03T12:18:59;4.70;99.90
12123;DHT22;6125;59.628;17.852;2023-04-03T12:24:35;4.80;99.90
12123;DHT22;6125;59.628;17.852;2023-04-03T12:27:21;4.90;99.90
12123;DHT22;6125;59.628;17.852;2023-04-03T12:29:56;4.90;99.90
12123;DHT22;6125;59.628;17.852;2023-04-03T12:32:35;4.90;99.90
12123;DHT22;6125;59.628;17.852;2023-04-03T12:35:14;5.00;99.90
12123;DHT22;6125;59.628;17.852;2023-04-03T12:37:54;5.20;99.90
12123;DHT22;6125;59.628;17.852;2023-04-03T12:40:30;5.30;99.90
12123;DHT22;6125;59.628;17.852;2023-04-03T12:43:23;5.30;99.90
12123;DHT22;6125;59.628;17.852;2023-04-03T12:45:59;5.30;99.90
12123;DHT22;6125;59.628;17.852;2023-04-03T12:48:30;5.30;99.90
12123;DHT22;6125;59.628;17.852;2023-04-03T12:50:59;5.30;99.90
12123;DHT22;6125;59.628;17.852;2023-04-03T12:53:28;5.20;99.90
12123;DHT22;6125;59.628;17.852;2023-04-03T12:56:20;5.30;99.90
12123;DHT22;6125;59.628;17.852;2023-04-03T12:58:48;5.30;99.90
12123;DHT22;6125;59.628;17.852;2023-04-03T13:01:16;5.30;99.90
12123;DHT22;6125;59.628;17.852;2023-04-03T13:03:45;5.60;99.90
12123;DHT22;6125;59.628;17.852;2023-04-03T13:06:17;5.80;99.90
12123;DHT22;6125;59.628;17.852;2023-04-03T13:08:49;5.90;99.90
12123;DHT22;6125;59.628;17.852;2023-04-03T13:11:19;6.00;99.90
12123;DHT22;6125;59.628;17.852;2023-04-03T13:13:55;6.20;99.90
12123;DHT22;6125;59.628;17.852;2023-04-03T13:16:23;6.50;99.90
12123;DHT22;6125;59.628;17.852;2023-04-03T13:18:52;6.70;99.90
12123;DHT22;6125;59.628;17.852;2023-04-03T13:21:21;6.80;99.90
12123;DHT22;6125;59.628;17.852;2023-04-03T13:23:51;6.90;99.90
12123;DHT22;6125;59.628;17.852;2023-04-03T13:26:21;6.90;99.90
12123;DHT22;6125;59.628;17.852;2023-04-03T13:28:50;7.00;99.90
12123;DHT22;6125;59.628;17.852;2023-04-03T13:31:20;7.00;99.90
12123;DHT22;6125;59.628;17.852;2023-04-03T13:33:56;6.80;99.90
12123;DHT22;6125;59.628;17.852;2023-04-03T13:36:27;6.80;99.90
12123;DHT22;6125;59.628;17.852;2023-04-03T13:39:04;6.90;99.90
12123;DHT22;6125;59.628;17.852;2023-04-03T13:41:35;7.20;99.90
12123;DHT22;6125;59.628;17.852;2023-04-03T13:44:27;7.60;99.90
12123;DHT22;6125;59.628;17.852;2023-04-03T13:46:56;7.80;99.90
12123;DHT22;6125;59.628;17.852;2023-04-03T13:49:31;7.60;99.90
12123;DHT22;6125;59.628;17.852;2023-04-03T13:51:58;7.60;99.90
12123;DHT22;6125;59.628;17.852;2023-04-03T13:54:30;7.50;99.90
12123;DHT22;6125;59.628;17.852;2023-04-03T13:57:00;7.70;99.90
12123;DHT22;6125;59.628;17.852;2023-04-03T13:59:30;7.70;99.90
12123;DHT22;6125;59.628;17.852;2023-04-03T14:02:13;7.40;99.90
12123;DHT22;6125;59.628;17.852;2023-04-03T14:04:52;7.20;99.90
12123;DHT22;6125;59.628;17.852;2023-04-03T14:07:22;7.20;99.90
12123;DHT22;6125;59.628;17.852;2023-04-03T14:09:50;7.40;99.90
12123;DHT22;6125;59.628;17.852;2023-04-03T14:12:25;7.50;99.90
12123;DHT22;6125;59.628;17.852;2023-04-03T14:14:53;7.30;99.90
12123;DHT22;6125;59.628;17.852;2023-04-03T14:17:22;7.30;99.90
12123;DHT22;6125;59.628;17.852;2023-04-03T14:19:51;7.20;99.90
12123;DHT22;6125;59.628;17.852;2023-04-03T14:22:21;6.90;99.90
12123;DHT22;6125;59.628;17.852;2023-04-03T14:24:49;7.10;99.90
12123;DHT22;6125;59.628;17.852;2023-04-03T14:27:21;7.10;99.90
12123;DHT22;6125;59.628;17.852;2023-04-03T14:29:50;7.00;99.90
12123;DHT22;6125;59.628;17.852;2023-04-03T14:32:20;7.00;99.90
12123;DHT22;6125;59.628;17.852;2023-04-03T14:34:49;7.20;99.90
12123;DHT22;6125;59.628;17.852;2023-04-03T14:37:20;7.30;99.90
12123;DHT22;6125;59.628;17.852;2023-04-03T14:39:49;7.50;99.90
12123;DHT22;6125;59.628;17.852;2023-04-03T14:42:20;7.50;99.90
12123;DHT22;6125;59.628;17.852;2023-04-03T14:44:49;7.20;99.90
12123;DHT22;6125;59.628;17.852;2023-04-03T14:47:19;7.20;99.90
12123;DHT22;6125;59.628;17.852;2023-04-03T14:49:47;6.90;99.90
12123;DHT22;6125;59.628;17.852;2023-04-03T14:52:18;6.80;99.90
12123;DHT22;6125;59.628;17.852;2023-04-03T14:54:46;6.80;99.90
12123;DHT22;6125;59.628;17.852;2023-04-03T14:57:15;6.60;99.90
12123;DHT22;6125;59.628;17.852;2023-04-03T14:59:44;6.40;99.90
12123;DHT22;6125;59.628;17.852;2023-04-03T15:02:25;6.20;99.90
12123;DHT22;6125;59.628;17.852;2023-04-03T15:04:52;6.00;99.90
12123;DHT22;6125;59.628;17.852;2023-04-03T15:07:19;5.80;99.90
12123;DHT22;6125;59.628;17.852;2023-04-03T15:09:46;5.70;99.90
12123;DHT22;6125;59.628;17.852;2023-04-03T15:12:13;5.60;99.90
12123;DHT22;6125;59.628;17.852;2023-04-03T15:14:40;5.50;99.90
12123;DHT22;6125;59.628;17.852;2023-04-03T15:17:15;5.40;99.90
12123;DHT22;6125;59.628;17.852;2023-04-03T15:19:43;5.40;99.90
12123;DHT22;6125;59.628;17.852;2023-04-03T15:22:13;5.30;99.90
12123;DHT22;6125;59.628;17.852;2023-04-03T15:24:40;5.30;99.90
12123;DHT22;6125;59.628;17.852;2023-04-03T15:27:08;5.30;99.90
12123;DHT22;6125;59.628;17.852;2023-04-03T15:29:35;5.20;99.90
12123;DHT22;6125;59.628;17.852;2023-04-03T15:32:03;5.20;99.90
12123;DHT22;6125;59.628;17.852;2023-04-03T15:34:32;5.10;99.90
12123;DHT22;6125;59.628;17.852;2023-04-03T15:36:59;5.10;99.90
12123;DHT22;6125;59.628;17.852;2023-04-03T15:39:26;5.20;99.90
12123;DHT22;6125;59.628;17.852;2023-04-03T15:41:53;5.10;99.90
12123;DHT22;6125;59.628;17.852;2023-04-03T15:44:21;5.00;99.90
12123;DHT22;6125;59.628;17.852;2023-04-03T15:46:49;4.90;99.90
12123;DHT22;6125;59.628;17.852;2023-04-03T15:49:17;4.80;99.90
12123;DHT22;6125;59.628;17.852;2023-04-03T15:51:45;4.70;99.90
12123;DHT22;6125;59.628;17.852;2023-04-03T15:54:13;4.60;99.90
12123;DHT22;6125;59.628;17.852;2023-04-03T15:56:40;4.60;99.90
12123;DHT22;6125;59.628;17.852;2023-04-03T15:59:07;4.60;99.90
12123;DHT22;6125;59.628;17.852;2023-04-03T16:01:34;4.60;99.90
12123;DHT22;6125;59.628;17.852;2023-04-03T16:04:08;4.60;99.90
12123;DHT22;6125;59.628;17.852;2023-04-03T16:06:36;4.50;99.90